sensor_id;sensor_type;location;lat;lon;timestamp;P1;durP1;ratioP1;P2;durP2;ratioP2
78783;SDS011;68127;51.050;14.084;2024-02-26T00:01:39;18.05;;;10.27;;
78783;SDS011;68127;51.050;14.084;2024-02-26T00:04:04;15.77;;;10.10;;
78783;SDS011;68127;51.050;14.084;2024-02-26T00:06:29;19.17;;;11.18;;
78783;SDS011;68127;51.050;14.084;2024-02-26T00:08:55;15.27;;;9.55;;
78783;SDS011;68127;51.050;14.084;2024-02-26T00:11:20;17.02;;;10.65;;
78783;SDS011;68127;51.050;14.084;2024-02-26T00:13:45;16.45;;;9.63;;
78783;SDS011;68127;51.050;14.084;2024-02-26T00:16:11;20.20;;;11.02;;
78783;SDS011;68127;51.050;14.084;2024-02-26T00:18:36;18.00;;;10.38;;
78783;SDS011;68127;51.050;14.084;2024-02-26T00:21:02;16.48;;;9.55;;
78783;SDS011;68127;51.050;14.084;2024-02-26T00:23:27;17.38;;;9.75;;
78783;SDS011;68127;51.050;14.084;2024-02-26T00:25:52;18.85;;;10.20;;
78783;SDS011;68127;51.050;14.084;2024-02-26T00:28:18;16.23;;;9.85;;
78783;SDS011;68127;51.050;14.084;2024-02-26T00:30:44;18.95;;;10.35;;
78783;SDS011;68127;51.050;14.084;2024-02-26T00:33:10;15.93;;;9.35;;
78783;SDS011;68127;51.050;14.084;2024-02-26T00:35:35;15.88;;;9.95;;
78783;SDS011;68127;51.050;14.084;2024-02-26T00:38:00;18.67;;;9.35;;
78783;SDS011;68127;51.050;14.084;2024-02-26T00:40:27;17.77;;;9.82;;
78783;SDS011;68127;51.050;14.084;2024-02-26T00:42:52;16.30;;;10.05;;
78783;SDS011;68127;51.050;14.084;2024-02-26T00:45:17;15.75;;;9.80;;
78783;SDS011;68127;51.050;14.084;2024-02-26T00:47:42;16.88;;;9.15;;
78783;SDS011;68127;51.050;14.084;2024-02-26T00:50:10;16.10;;;9.48;;
78783;SDS011;68127;51.050;14.084;2024-02-26T00:52:35;14.85;;;9.63;;
78783;SDS011;68127;51.050;14.084;2024-02-26T00:55:01;15.43;;;9.68;;
78783;SDS011;68127;51.050;14.084;2024-02-26T00:57:27;17.45;;;9.15;;
78783;SDS011;68127;51.050;14.084;2024-02-26T00:59:52;13.95;;;8.50;;
78783;SDS011;68127;51.050;14.084;2024-02-26T01:02:18;14.70;;;9.07;;
78783;SDS011;68127;51.050;14.084;2024-02-26T01:04:43;15.15;;;8.70;;
78783;SDS011;68127;51.050;14.084;2024-02-26T01:07:08;14.90;;;8.18;;
78783;SDS011;68127;51.050;14.084;2024-02-26T01:09:34;12.95;;;8.02;;
78783;SDS011;68127;51.050;14.084;2024-02-26T01:11:59;11.45;;;7.57;;
78783;SDS011;68127;51.050;14.084;2024-02-26T01:14:24;17.00;;;8.00;;
78783;SDS011;68127;51.050;14.084;2024-02-26T01:16:50;14.48;;;8.57;;
78783;SDS011;68127;51.050;14.084;2024-02-26T01:19:15;14.00;;;8.07;;
78783;SDS011;68127;51.050;14.084;2024-02-26T01:21:40;13.60;;;7.65;;
78783;SDS011;68127;51.050;14.084;2024-02-26T01:24:05;14.38;;;7.95;;
78783;SDS011;68127;51.050;14.084;2024-02-26T01:26:31;15.05;;;8.27;;
78783;SDS011;68127;51.050;14.084;2024-02-26T01:28:56;14.15;;;7.63;;
78783;SDS011;68127;51.050;14.084;2024-02-26T01:31:21;11.88;;;7.25;;
78783;SDS011;68127;51.050;14.084;2024-02-26T01:33:46;14.50;;;7.93;;
78783;SDS011;68127;51.050;14.084;2024-02-26T01:36:12;12.93;;;7.97;;
78783;SDS011;68127;51.050;14.084;2024-02-26T01:38:37;19.67;;;8.27;;
78783;SDS011;68127;51.050;14.084;2024-02-26T01:41:02;15.25;;;7.25;;
78783;SDS011;68127;51.050;14.084;2024-02-26T01:43:28;13.00;;;7.30;;
78783;SDS011;68127;51.050;14.084;2024-02-26T01:45:53;16.65;;;7.43;;
78783;SDS011;68127;51.050;14.084;2024-02-26T01:48:18;13.93;;;7.25;;
78783;SDS011;68127;51.050;14.084;2024-02-26T01:50:44;11.07;;;7.05;;
78783;SDS011;68127;51.050;14.084;2024-02-26T01:53:09;14.40;;;7.47;;
78783;SDS011;68127;51.050;14.084;2024-02-26T01:55:34;13.68;;;7.20;;
78783;SDS011;68127;51.050;14.084;2024-02-26T01:58:00;10.98;;;7.20;;
78783;SDS011;68127;51.050;14.084;2024-02-26T02:00:25;12.82;;;7.20;;
78783;SDS011;68127;51.050;14.084;2024-02-26T02:02:51;12.10;;;6.97;;
78783;SDS011;68127;51.050;14.084;2024-02-26T02:05:17;16.27;;;7.00;;
78783;SDS011;68127;51.050;14.084;2024-02-26T02:07:45;13.48;;;7.43;;
78783;SDS011;68127;51.050;14.084;2024-02-26T02:10:11;12.23;;;7.13;;
78783;SDS011;68127;51.050;14.084;2024-02-26T02:12:36;13.10;;;6.85;;
78783;SDS011;68127;51.050;14.084;2024-02-26T02:15:04;9.93;;;6.53;;
78783;SDS011;68127;51.050;14.084;2024-02-26T02:17:30;11.20;;;6.72;;
78783;SDS011;68127;51.050;14.084;2024-02-26T02:19:56;12.57;;;6.95;;
78783;SDS011;68127;51.050;14.084;2024-02-26T02:22:21;12.55;;;7.10;;
78783;SDS011;68127;51.050;14.084;2024-02-26T02:24:47;13.52;;;7.05;;
78783;SDS011;68127;51.050;14.084;2024-02-26T02:27:13;12.30;;;6.97;;
78783;SDS011;68127;51.050;14.084;2024-02-26T02:29:39;11.27;;;6.53;;
78783;SDS011;68127;51.050;14.084;2024-02-26T02:32:04;11.18;;;6.32;;
78783;SDS011;68127;51.050;14.084;2024-02-26T02:34:30;12.95;;;6.30;;
78783;SDS011;68127;51.050;14.084;2024-02-26T02:36:56;11.82;;;6.40;;
78783;SDS011;68127;51.050;14.084;2024-02-26T02:39:21;11.18;;;6.35;;
78783;SDS011;68127;51.050;14.084;2024-02-26T02:41:47;11.00;;;6.20;;
78783;SDS011;68127;51.050;14.084;2024-02-26T02:44:12;11.48;;;6.00;;
78783;SDS011;68127;51.050;14.084;2024-02-26T02:46:38;11.85;;;6.38;;
78783;SDS011;68127;51.050;14.084;2024-02-26T02:49:03;12.05;;;6.28;;
78783;SDS011;68127;51.050;14.084;2024-02-26T02:51:29;13.07;;;6.15;;
78783;SDS011;68127;51.050;14.084;2024-02-26T02:53:54;11.65;;;5.68;;
78783;SDS011;68127;51.050;14.084;2024-02-26T02:56:19;12.57;;;5.93;;
78783;SDS011;68127;51.050;14.084;2024-02-26T02:58:44;11.52;;;6.25;;
78783;SDS011;68127;51.050;14.084;2024-02-26T03:01:10;10.00;;;6.20;;
78783;SDS011;68127;51.050;14.084;2024-02-26T03:03:35;12.18;;;5.95;;
78783;SDS011;68127;51.050;14.084;2024-02-26T03:06:02;11.02;;;5.63;;
78783;SDS011;68127;51.050;14.084;2024-02-26T03:08:28;9.95;;;5.38;;
78783;SDS011;68127;51.050;14.084;2024-02-26T03:10:53;9.95;;;5.13;;
78783;SDS011;68127;51.050;14.084;2024-02-26T03:13:19;8.88;;;5.80;;
78783;SDS011;68127;51.050;14.084;2024-02-26T03:15:44;9.30;;;6.05;;
78783;SDS011;68127;51.050;14.084;2024-02-26T03:18:09;11.48;;;5.70;;
78783;SDS011;68127;51.050;14.084;2024-02-26T03:20:34;11.20;;;5.60;;
78783;SDS011;68127;51.050;14.084;2024-02-26T03:23:00;10.07;;;6.13;;
78783;SDS011;68127;51.050;14.084;2024-02-26T03:25:25;8.25;;;5.15;;
78783;SDS011;68127;51.050;14.084;2024-02-26T03:27:50;10.38;;;5.68;;
78783;SDS011;68127;51.050;14.084;2024-02-26T03:30:16;11.63;;;5.60;;
78783;SDS011;68127;51.050;14.084;2024-02-26T03:32:41;9.90;;;5.57;;
78783;SDS011;68127;51.050;14.084;2024-02-26T03:35:06;10.30;;;5.53;;
78783;SDS011;68127;51.050;14.084;2024-02-26T03:37:32;12.63;;;5.82;;
78783;SDS011;68127;51.050;14.084;2024-02-26T03:39:57;9.27;;;5.28;;
78783;SDS011;68127;51.050;14.084;2024-02-26T03:42:23;12.55;;;5.57;;
78783;SDS011;68127;51.050;14.084;2024-02-26T03:44:48;11.82;;;5.60;;
78783;SDS011;68127;51.050;14.084;2024-02-26T03:47:13;10.38;;;5.03;;
78783;SDS011;68127;51.050;14.084;2024-02-26T03:49:39;10.40;;;5.35;;
78783;SDS011;68127;51.050;14.084;2024-02-26T03:52:04;10.95;;;5.97;;
78783;SDS011;68127;51.050;14.084;2024-02-26T03:54:30;11.63;;;5.97;;
78783;SDS011;68127;51.050;14.084;2024-02-26T03:56:55;11.55;;;5.40;;
78783;SDS011;68127;51.050;14.084;2024-02-26T03:59:20;12.23;;;5.88;;
78783;SDS011;68127;51.050;14.084;2024-02-26T04:01:46;9.25;;;5.05;;
78783;SDS011;68127;51.050;14.084;2024-02-26T04:04:12;10.95;;;5.88;;
78783;SDS011;68127;51.050;14.084;2024-02-26T04:06:38;9.88;;;5.53;;
78783;SDS011;68127;51.050;14.084;2024-02-26T04:09:03;11.65;;;5.35;;
78783;SDS011;68127;51.050;14.084;2024-02-26T04:11:28;8.75;;;5.32;;
78783;SDS011;68127;51.050;14.084;2024-02-26T04:13:54;10.43;;;5.55;;
78783;SDS011;68127;51.050;14.084;2024-02-26T04:16:19;11.32;;;5.50;;
78783;SDS011;68127;51.050;14.084;2024-02-26T04:18:45;8.13;;;5.47;;
78783;SDS011;68127;51.050;14.084;2024-02-26T04:21:10;10.18;;;4.97;;
78783;SDS011;68127;51.050;14.084;2024-02-26T04:23:35;10.82;;;5.10;;
78783;SDS011;68127;51.050;14.084;2024-02-26T04:26:00;10.07;;;5.38;;
78783;SDS011;68127;51.050;14.084;2024-02-26T04:28:26;11.05;;;5.38;;
78783;SDS011;68127;51.050;14.084;2024-02-26T04:30:53;12.60;;;5.18;;
78783;SDS011;68127;51.050;14.084;2024-02-26T04:33:19;10.00;;;4.95;;
78783;SDS011;68127;51.050;14.084;2024-02-26T04:35:44;10.73;;;5.40;;
78783;SDS011;68127;51.050;14.084;2024-02-26T04:38:09;11.77;;;5.20;;
78783;SDS011;68127;51.050;14.084;2024-02-26T04:40:34;12.30;;;4.93;;
78783;SDS011;68127;51.050;14.084;2024-02-26T04:43:00;11.38;;;5.15;;
78783;SDS011;68127;51.050;14.084;2024-02-26T04:45:25;9.02;;;4.72;;
78783;SDS011;68127;51.050;14.084;2024-02-26T04:47:50;12.13;;;5.18;;
78783;SDS011;68127;51.050;14.084;2024-02-26T04:50:16;10.43;;;4.75;;
78783;SDS011;68127;51.050;14.084;2024-02-26T04:52:41;8.60;;;4.53;;
78783;SDS011;68127;51.050;14.084;2024-02-26T04:55:06;9.48;;;4.70;;
78783;SDS011;68127;51.050;14.084;2024-02-26T04:57:32;12.60;;;5.85;;
78783;SDS011;68127;51.050;14.084;2024-02-26T04:59:57;8.55;;;4.70;;
78783;SDS011;68127;51.050;14.084;2024-02-26T05:02:22;9.45;;;5.47;;
78783;SDS011;68127;51.050;14.084;2024-02-26T05:04:48;10.02;;;4.40;;
78783;SDS011;68127;51.050;14.084;2024-02-26T05:07:13;8.35;;;4.78;;
78783;SDS011;68127;51.050;14.084;2024-02-26T05:09:39;9.52;;;4.78;;
78783;SDS011;68127;51.050;14.084;2024-02-26T05:12:05;9.95;;;4.82;;
78783;SDS011;68127;51.050;14.084;2024-02-26T05:14:30;10.18;;;3.97;;
78783;SDS011;68127;51.050;14.084;2024-02-26T05:16:56;11.20;;;4.38;;
78783;SDS011;68127;51.050;14.084;2024-02-26T05:19:21;8.82;;;4.32;;
78783;SDS011;68127;51.050;14.084;2024-02-26T05:21:46;12.32;;;5.18;;
78783;SDS011;68127;51.050;14.084;2024-02-26T05:24:14;7.25;;;4.05;;
78783;SDS011;68127;51.050;14.084;2024-02-26T05:26:40;10.95;;;4.68;;
78783;SDS011;68127;51.050;14.084;2024-02-26T05:29:06;8.30;;;4.32;;
78783;SDS011;68127;51.050;14.084;2024-02-26T05:31:31;7.10;;;4.10;;
78783;SDS011;68127;51.050;14.084;2024-02-26T05:33:56;7.18;;;4.25;;
78783;SDS011;68127;51.050;14.084;2024-02-26T05:36:21;9.65;;;4.40;;
78783;SDS011;68127;51.050;14.084;2024-02-26T05:38:47;10.77;;;4.25;;
78783;SDS011;68127;51.050;14.084;2024-02-26T05:41:14;8.52;;;4.45;;
78783;SDS011;68127;51.050;14.084;2024-02-26T05:43:40;8.38;;;4.55;;
78783;SDS011;68127;51.050;14.084;2024-02-26T05:46:05;10.45;;;4.60;;
78783;SDS011;68127;51.050;14.084;2024-02-26T05:48:31;9.52;;;4.32;;
78783;SDS011;68127;51.050;14.084;2024-02-26T05:50:57;13.15;;;4.40;;
78783;SDS011;68127;51.050;14.084;2024-02-26T05:53:22;10.13;;;4.45;;
78783;SDS011;68127;51.050;14.084;2024-02-26T05:55:47;6.97;;;3.78;;
78783;SDS011;68127;51.050;14.084;2024-02-26T05:58:12;9.10;;;3.85;;
78783;SDS011;68127;51.050;14.084;2024-02-26T06:00:39;8.50;;;3.25;;
78783;SDS011;68127;51.050;14.084;2024-02-26T06:03:04;7.97;;;4.05;;
78783;SDS011;68127;51.050;14.084;2024-02-26T06:05:29;7.38;;;3.58;;
78783;SDS011;68127;51.050;14.084;2024-02-26T06:07:54;7.38;;;3.92;;
78783;SDS011;68127;51.050;14.084;2024-02-26T06:10:20;8.75;;;4.32;;
78783;SDS011;68127;51.050;14.084;2024-02-26T06:12:46;9.70;;;4.30;;
78783;SDS011;68127;51.050;14.084;2024-02-26T06:15:11;8.45;;;3.80;;
78783;SDS011;68127;51.050;14.084;2024-02-26T06:17:37;8.73;;;4.22;;
78783;SDS011;68127;51.050;14.084;2024-02-26T06:20:02;8.80;;;4.50;;
78783;SDS011;68127;51.050;14.084;2024-02-26T06:22:29;9.05;;;4.45;;
78783;SDS011;68127;51.050;14.084;2024-02-26T06:24:55;11.20;;;4.55;;
78783;SDS011;68127;51.050;14.084;2024-02-26T06:27:20;8.05;;;4.82;;
78783;SDS011;68127;51.050;14.084;2024-02-26T06:29:46;9.20;;;5.30;;
78783;SDS011;68127;51.050;14.084;2024-02-26T06:32:13;10.07;;;4.70;;
78783;SDS011;68127;51.050;14.084;2024-02-26T06:34:39;8.13;;;4.47;;
78783;SDS011;68127;51.050;14.084;2024-02-26T06:37:05;9.90;;;4.78;;
78783;SDS011;68127;51.050;14.084;2024-02-26T06:39:31;7.95;;;4.60;;
78783;SDS011;68127;51.050;14.084;2024-02-26T06:41:56;8.90;;;4.22;;
78783;SDS011;68127;51.050;14.084;2024-02-26T06:44:25;7.78;;;4.25;;
78783;SDS011;68127;51.050;14.084;2024-02-26T06:46:56;8.13;;;4.25;;
78783;SDS011;68127;51.050;14.084;2024-02-26T06:49:21;9.40;;;4.18;;
78783;SDS011;68127;51.050;14.084;2024-02-26T06:51:47;8.98;;;4.43;;
78783;SDS011;68127;51.050;14.084;2024-02-26T06:54:12;9.50;;;4.65;;
78783;SDS011;68127;51.050;14.084;2024-02-26T06:56:37;11.68;;;4.80;;
78783;SDS011;68127;51.050;14.084;2024-02-26T06:59:02;11.30;;;4.60;;
78783;SDS011;68127;51.050;14.084;2024-02-26T07:01:28;8.38;;;4.28;;
78783;SDS011;68127;51.050;14.084;2024-02-26T07:03:53;13.60;;;5.00;;
78783;SDS011;68127;51.050;14.084;2024-02-26T07:06:18;10.38;;;4.70;;
78783;SDS011;68127;51.050;14.084;2024-02-26T07:08:43;7.65;;;4.60;;
78783;SDS011;68127;51.050;14.084;2024-02-26T07:11:10;13.48;;;5.13;;
78783;SDS011;68127;51.050;14.084;2024-02-26T07:13:35;11.75;;;5.00;;
78783;SDS011;68127;51.050;14.084;2024-02-26T07:16:00;9.35;;;4.72;;
78783;SDS011;68127;51.050;14.084;2024-02-26T07:18:26;10.65;;;5.10;;
78783;SDS011;68127;51.050;14.084;2024-02-26T07:20:51;7.88;;;4.88;;
78783;SDS011;68127;51.050;14.084;2024-02-26T07:23:16;10.50;;;4.63;;
78783;SDS011;68127;51.050;14.084;2024-02-26T07:25:42;11.65;;;4.82;;
78783;SDS011;68127;51.050;14.084;2024-02-26T07:28:09;9.95;;;4.78;;
78783;SDS011;68127;51.050;14.084;2024-02-26T07:30:34;8.10;;;4.70;;
78783;SDS011;68127;51.050;14.084;2024-02-26T07:32:59;8.38;;;4.32;;
78783;SDS011;68127;51.050;14.084;2024-02-26T07:35:25;9.52;;;4.93;;
78783;SDS011;68127;51.050;14.084;2024-02-26T07:37:50;8.52;;;4.53;;
78783;SDS011;68127;51.050;14.084;2024-02-26T07:40:16;7.97;;;4.50;;
78783;SDS011;68127;51.050;14.084;2024-02-26T07:42:41;8.40;;;4.80;;
78783;SDS011;68127;51.050;14.084;2024-02-26T07:45:06;11.75;;;5.43;;
78783;SDS011;68127;51.050;14.084;2024-02-26T07:47:31;11.85;;;5.18;;
78783;SDS011;68127;51.050;14.084;2024-02-26T07:49:59;13.70;;;5.93;;
78783;SDS011;68127;51.050;14.084;2024-02-26T07:52:24;10.57;;;5.82;;
78783;SDS011;68127;51.050;14.084;2024-02-26T07:54:50;15.00;;;6.88;;
78783;SDS011;68127;51.050;14.084;2024-02-26T07:57:15;12.32;;;6.88;;
78783;SDS011;68127;51.050;14.084;2024-02-26T07:59:42;13.57;;;6.85;;
78783;SDS011;68127;51.050;14.084;2024-02-26T08:02:07;16.83;;;7.72;;
78783;SDS011;68127;51.050;14.084;2024-02-26T08:04:33;14.35;;;7.35;;
78783;SDS011;68127;51.050;14.084;2024-02-26T08:06:58;16.25;;;7.68;;
78783;SDS011;68127;51.050;14.084;2024-02-26T08:09:23;12.63;;;6.95;;
78783;SDS011;68127;51.050;14.084;2024-02-26T08:11:49;17.20;;;7.35;;
78783;SDS011;68127;51.050;14.084;2024-02-26T08:14:14;14.82;;;7.15;;
78783;SDS011;68127;51.050;14.084;2024-02-26T08:16:39;12.93;;;7.00;;
78783;SDS011;68127;51.050;14.084;2024-02-26T08:19:04;11.60;;;7.20;;
78783;SDS011;68127;51.050;14.084;2024-02-26T08:21:30;12.00;;;7.32;;
78783;SDS011;68127;51.050;14.084;2024-02-26T08:23:55;12.10;;;6.40;;
78783;SDS011;68127;51.050;14.084;2024-02-26T08:26:20;11.65;;;7.00;;
78783;SDS011;68127;51.050;14.084;2024-02-26T08:28:47;11.38;;;6.30;;
78783;SDS011;68127;51.050;14.084;2024-02-26T08:31:15;13.05;;;7.10;;
78783;SDS011;68127;51.050;14.084;2024-02-26T08:33:49;15.75;;;7.05;;
78783;SDS011;68127;51.050;14.084;2024-02-26T08:36:14;14.70;;;7.95;;
78783;SDS011;68127;51.050;14.084;2024-02-26T08:38:39;11.70;;;6.22;;
78783;SDS011;68127;51.050;14.084;2024-02-26T08:41:05;13.55;;;7.40;;
78783;SDS011;68127;51.050;14.084;2024-02-26T08:43:30;14.68;;;6.90;;
78783;SDS011;68127;51.050;14.084;2024-02-26T08:45:56;13.52;;;7.15;;
78783;SDS011;68127;51.050;14.084;2024-02-26T08:48:22;13.85;;;7.38;;
78783;SDS011;68127;51.050;14.084;2024-02-26T08:50:47;13.32;;;7.47;;
78783;SDS011;68127;51.050;14.084;2024-02-26T08:53:12;14.10;;;7.95;;
78783;SDS011;68127;51.050;14.084;2024-02-26T08:55:37;14.90;;;8.35;;
78783;SDS011;68127;51.050;14.084;2024-02-26T08:58:03;17.00;;;8.00;;
78783;SDS011;68127;51.050;14.084;2024-02-26T09:00:28;14.30;;;8.27;;
78783;SDS011;68127;51.050;14.084;2024-02-26T09:02:53;16.05;;;8.52;;
78783;SDS011;68127;51.050;14.084;2024-02-26T09:05:19;14.25;;;8.68;;
78783;SDS011;68127;51.050;14.084;2024-02-26T09:07:44;13.68;;;7.38;;
78783;SDS011;68127;51.050;14.084;2024-02-26T09:10:09;17.08;;;8.35;;
78783;SDS011;68127;51.050;14.084;2024-02-26T09:12:35;16.23;;;9.35;;
78783;SDS011;68127;51.050;14.084;2024-02-26T09:15:01;18.27;;;9.38;;
78783;SDS011;68127;51.050;14.084;2024-02-26T09:17:26;17.33;;;9.30;;
78783;SDS011;68127;51.050;14.084;2024-02-26T09:19:51;19.17;;;9.32;;
78783;SDS011;68127;51.050;14.084;2024-02-26T09:22:16;17.50;;;9.73;;
78783;SDS011;68127;51.050;14.084;2024-02-26T09:24:42;15.52;;;9.25;;
78783;SDS011;68127;51.050;14.084;2024-02-26T09:27:07;16.23;;;8.93;;
78783;SDS011;68127;51.050;14.084;2024-02-26T09:29:32;15.35;;;8.88;;
78783;SDS011;68127;51.050;14.084;2024-02-26T09:31:58;15.77;;;8.40;;
78783;SDS011;68127;51.050;14.084;2024-02-26T09:34:23;14.50;;;8.57;;
78783;SDS011;68127;51.050;14.084;2024-02-26T09:36:48;13.52;;;8.30;;
78783;SDS011;68127;51.050;14.084;2024-02-26T09:39:14;14.48;;;8.30;;
78783;SDS011;68127;51.050;14.084;2024-02-26T09:41:45;14.38;;;7.88;;
78783;SDS011;68127;51.050;14.084;2024-02-26T09:44:10;14.68;;;7.75;;
78783;SDS011;68127;51.050;14.084;2024-02-26T09:46:36;16.23;;;7.85;;
78783;SDS011;68127;51.050;14.084;2024-02-26T09:49:02;13.32;;;7.57;;
78783;SDS011;68127;51.050;14.084;2024-02-26T09:51:27;14.55;;;7.90;;
78783;SDS011;68127;51.050;14.084;2024-02-26T09:53:53;13.30;;;7.90;;
78783;SDS011;68127;51.050;14.084;2024-02-26T09:56:19;15.90;;;8.40;;
78783;SDS011;68127;51.050;14.084;2024-02-26T09:58:45;14.57;;;7.43;;
78783;SDS011;68127;51.050;14.084;2024-02-26T10:01:16;15.85;;;8.13;;
78783;SDS011;68127;51.050;14.084;2024-02-26T10:03:42;12.80;;;7.05;;
78783;SDS011;68127;51.050;14.084;2024-02-26T10:06:09;11.82;;;6.78;;
78783;SDS011;68127;51.050;14.084;2024-02-26T10:08:35;12.10;;;7.00;;
78783;SDS011;68127;51.050;14.084;2024-02-26T10:11:02;13.38;;;7.93;;
78783;SDS011;68127;51.050;14.084;2024-02-26T10:13:27;13.48;;;7.40;;
78783;SDS011;68127;51.050;14.084;2024-02-26T10:15:53;10.77;;;7.07;;
78783;SDS011;68127;51.050;14.084;2024-02-26T10:18:18;13.80;;;7.00;;
78783;SDS011;68127;51.050;14.084;2024-02-26T10:20:58;15.85;;;7.47;;
78783;SDS011;68127;51.050;14.084;2024-02-26T10:23:25;13.68;;;7.53;;
78783;SDS011;68127;51.050;14.084;2024-02-26T10:25:54;11.80;;;7.03;;
78783;SDS011;68127;51.050;14.084;2024-02-26T10:28:20;15.18;;;7.95;;
78783;SDS011;68127;51.050;14.084;2024-02-26T10:30:45;12.07;;;6.88;;
78783;SDS011;68127;51.050;14.084;2024-02-26T10:33:11;16.55;;;7.15;;
78783;SDS011;68127;51.050;14.084;2024-02-26T10:35:38;14.32;;;7.10;;
78783;SDS011;68127;51.050;14.084;2024-02-26T10:38:05;14.80;;;8.23;;
78783;SDS011;68127;51.050;14.084;2024-02-26T10:40:31;13.65;;;7.72;;
78783;SDS011;68127;51.050;14.084;2024-02-26T10:42:57;14.57;;;7.53;;
78783;SDS011;68127;51.050;14.084;2024-02-26T10:45:23;13.00;;;7.32;;
78783;SDS011;68127;51.050;14.084;2024-02-26T10:47:48;13.77;;;7.43;;
78783;SDS011;68127;51.050;14.084;2024-02-26T10:50:14;12.85;;;7.82;;
78783;SDS011;68127;51.050;14.084;2024-02-26T10:52:41;19.77;;;8.73;;
78783;SDS011;68127;51.050;14.084;2024-02-26T10:55:07;15.20;;;7.88;;
78783;SDS011;68127;51.050;14.084;2024-02-26T10:57:41;14.45;;;7.32;;
78783;SDS011;68127;51.050;14.084;2024-02-26T11:00:10;13.13;;;7.40;;
78783;SDS011;68127;51.050;14.084;2024-02-26T11:02:38;13.10;;;7.05;;
78783;SDS011;68127;51.050;14.084;2024-02-26T11:05:05;10.98;;;6.80;;
78783;SDS011;68127;51.050;14.084;2024-02-26T11:07:31;16.40;;;9.68;;
78783;SDS011;68127;51.050;14.084;2024-02-26T11:10:01;18.75;;;9.43;;
78783;SDS011;68127;51.050;14.084;2024-02-26T11:12:27;17.23;;;8.27;;
78783;SDS011;68127;51.050;14.084;2024-02-26T11:14:53;17.42;;;8.32;;
78783;SDS011;68127;51.050;14.084;2024-02-26T11:17:21;15.90;;;7.88;;
78783;SDS011;68127;51.050;14.084;2024-02-26T11:19:47;13.23;;;7.35;;
78783;SDS011;68127;51.050;14.084;2024-02-26T11:22:13;14.52;;;7.90;;
78783;SDS011;68127;51.050;14.084;2024-02-26T11:24:38;12.52;;;7.13;;
78783;SDS011;68127;51.050;14.084;2024-02-26T11:27:06;13.95;;;7.07;;
78783;SDS011;68127;51.050;14.084;2024-02-26T11:29:34;12.88;;;7.25;;
78783;SDS011;68127;51.050;14.084;2024-02-26T11:32:03;12.50;;;6.32;;
78783;SDS011;68127;51.050;14.084;2024-02-26T11:34:30;11.00;;;6.63;;
78783;SDS011;68127;51.050;14.084;2024-02-26T11:36:55;9.95;;;6.53;;
78783;SDS011;68127;51.050;14.084;2024-02-26T11:39:21;11.48;;;6.47;;
78783;SDS011;68127;51.050;14.084;2024-02-26T11:41:46;11.18;;;6.68;;
78783;SDS011;68127;51.050;14.084;2024-02-26T11:44:12;12.70;;;6.65;;
78783;SDS011;68127;51.050;14.084;2024-02-26T11:46:40;13.93;;;7.30;;
78783;SDS011;68127;51.050;14.084;2024-02-26T11:51:52;12.63;;;6.90;;
78783;SDS011;68127;51.050;14.084;2024-02-26T12:00:15;11.82;;;6.60;;
78783;SDS011;68127;51.050;14.084;2024-02-26T12:02:55;11.18;;;6.55;;
78783;SDS011;68127;51.050;14.084;2024-02-26T12:05:25;9.32;;;5.50;;
78783;SDS011;68127;51.050;14.084;2024-02-26T12:07:53;9.63;;;5.43;;
78783;SDS011;68127;51.050;14.084;2024-02-26T12:10:23;10.57;;;6.25;;
78783;SDS011;68127;51.050;14.084;2024-02-26T12:13:12;12.50;;;6.80;;
78783;SDS011;68127;51.050;14.084;2024-02-26T12:15:42;11.40;;;6.53;;
78783;SDS011;68127;51.050;14.084;2024-02-26T12:18:09;11.45;;;6.05;;
78783;SDS011;68127;51.050;14.084;2024-02-26T12:20:35;10.77;;;6.05;;
78783;SDS011;68127;51.050;14.084;2024-02-26T12:23:01;11.43;;;6.03;;
78783;SDS011;68127;51.050;14.084;2024-02-26T12:25:28;8.70;;;5.47;;
78783;SDS011;68127;51.050;14.084;2024-02-26T12:27:54;10.85;;;5.97;;
78783;SDS011;68127;51.050;14.084;2024-02-26T12:30:20;10.18;;;5.93;;
78783;SDS011;68127;51.050;14.084;2024-02-26T12:32:46;11.75;;;5.55;;
78783;SDS011;68127;51.050;14.084;2024-02-26T12:35:13;9.93;;;5.55;;
78783;SDS011;68127;51.050;14.084;2024-02-26T12:37:38;10.50;;;6.00;;
78783;SDS011;68127;51.050;14.084;2024-02-26T12:40:08;9.32;;;5.88;;
78783;SDS011;68127;51.050;14.084;2024-02-26T12:42:34;10.35;;;6.00;;
78783;SDS011;68127;51.050;14.084;2024-02-26T12:45:04;10.98;;;6.25;;
78783;SDS011;68127;51.050;14.084;2024-02-26T12:47:44;10.45;;;6.22;;
78783;SDS011;68127;51.050;14.084;2024-02-26T12:50:11;9.30;;;5.57;;
78783;SDS011;68127;51.050;14.084;2024-02-26T12:52:40;11.02;;;6.10;;
78783;SDS011;68127;51.050;14.084;2024-02-26T12:55:07;9.60;;;5.57;;
78783;SDS011;68127;51.050;14.084;2024-02-26T12:57:34;10.57;;;5.93;;
78783;SDS011;68127;51.050;14.084;2024-02-26T13:00:01;10.55;;;6.22;;
78783;SDS011;68127;51.050;14.084;2024-02-26T13:02:27;10.40;;;6.00;;
78783;SDS011;68127;51.050;14.084;2024-02-26T13:04:53;11.18;;;6.07;;
78783;SDS011;68127;51.050;14.084;2024-02-26T13:07:20;11.40;;;6.20;;
78783;SDS011;68127;51.050;14.084;2024-02-26T13:09:45;10.25;;;5.80;;
78783;SDS011;68127;51.050;14.084;2024-02-26T13:12:11;12.18;;;6.50;;
78783;SDS011;68127;51.050;14.084;2024-02-26T13:14:37;10.60;;;5.50;;
78783;SDS011;68127;51.050;14.084;2024-02-26T13:17:02;9.80;;;6.10;;
78783;SDS011;68127;51.050;14.084;2024-02-26T13:19:28;9.90;;;5.40;;
78783;SDS011;68127;51.050;14.084;2024-02-26T13:21:53;10.85;;;5.88;;
78783;SDS011;68127;51.050;14.084;2024-02-26T13:24:19;10.40;;;5.60;;
78783;SDS011;68127;51.050;14.084;2024-02-26T13:26:44;11.43;;;5.97;;
78783;SDS011;68127;51.050;14.084;2024-02-26T13:29:16;10.35;;;5.90;;
78783;SDS011;68127;51.050;14.084;2024-02-26T13:31:42;9.93;;;5.63;;
78783;SDS011;68127;51.050;14.084;2024-02-26T13:34:08;9.70;;;5.90;;
78783;SDS011;68127;51.050;14.084;2024-02-26T13:36:33;12.07;;;6.50;;
78783;SDS011;68127;51.050;14.084;2024-02-26T13:38:58;9.70;;;6.43;;
78783;SDS011;68127;51.050;14.084;2024-02-26T13:41:24;11.00;;;5.90;;
78783;SDS011;68127;51.050;14.084;2024-02-26T13:43:50;9.38;;;5.85;;
78783;SDS011;68127;51.050;14.084;2024-02-26T13:46:15;9.63;;;6.10;;
78783;SDS011;68127;51.050;14.084;2024-02-26T13:48:42;8.43;;;5.03;;
78783;SDS011;68127;51.050;14.084;2024-02-26T13:51:07;9.23;;;5.60;;
78783;SDS011;68127;51.050;14.084;2024-02-26T13:53:32;11.13;;;5.53;;
78783;SDS011;68127;51.050;14.084;2024-02-26T13:55:58;10.82;;;5.72;;
78783;SDS011;68127;51.050;14.084;2024-02-26T13:58:25;10.63;;;5.50;;
78783;SDS011;68127;51.050;14.084;2024-02-26T14:00:52;9.63;;;5.60;;
78783;SDS011;68127;51.050;14.084;2024-02-26T14:03:17;14.15;;;5.85;;
78783;SDS011;68127;51.050;14.084;2024-02-26T14:05:42;12.98;;;7.55;;
78783;SDS011;68127;51.050;14.084;2024-02-26T14:08:08;9.68;;;5.72;;
78783;SDS011;68127;51.050;14.084;2024-02-26T14:10:34;8.80;;;5.35;;
78783;SDS011;68127;51.050;14.084;2024-02-26T14:12:59;8.63;;;5.53;;
78783;SDS011;68127;51.050;14.084;2024-02-26T14:15:25;8.18;;;5.32;;
78783;SDS011;68127;51.050;14.084;2024-02-26T14:17:51;8.82;;;5.95;;
78783;SDS011;68127;51.050;14.084;2024-02-26T14:20:20;10.10;;;5.72;;
78783;SDS011;68127;51.050;14.084;2024-02-26T14:22:46;9.02;;;5.00;;
78783;SDS011;68127;51.050;14.084;2024-02-26T14:25:12;9.52;;;5.38;;